createdAt,value
2018-07-25T00:04:40.842Z,26.30
2018-07-25T00:09:44.220Z,26.20
2018-07-25T00:14:47.565Z,26.20
2018-07-25T00:24:53.989Z,26.00
2018-07-25T00:29:57.361Z,26.00
2018-07-25T00:35:00.837Z,26.00
2018-07-25T00:40:04.552Z,26.00
2018-07-25T00:45:07.904Z,26.00
2018-07-25T00:50:11.335Z,25.90
2018-07-25T00:55:14.669Z,25.80
2018-07-25T01:00:18.667Z,25.70
2018-07-25T01:05:22.011Z,25.50
2018-07-25T01:10:25.437Z,25.40
2018-07-25T01:15:28.814Z,25.40
2018-07-25T01:20:32.180Z,25.30
2018-07-25T01:25:35.564Z,25.20
2018-07-25T01:30:38.905Z,25.20
2018-07-25T01:35:42.324Z,25.10
2018-07-25T01:40:45.680Z,25.00
2018-07-25T01:45:49.012Z,24.90
2018-07-25T01:50:52.432Z,24.80
2018-07-25T01:55:55.761Z,24.70
2018-07-25T02:00:59.102Z,24.70
2018-07-25T02:06:02.472Z,24.60
2018-07-25T02:11:05.869Z,24.50
2018-07-25T02:16:09.230Z,24.40
2018-07-25T02:21:12.620Z,24.40
2018-07-25T02:26:15.996Z,24.30
2018-07-25T02:31:19.440Z,24.20
2018-07-25T02:36:22.790Z,24.20
2018-07-25T02:41:26.141Z,24.10
2018-07-25T02:46:29.510Z,24.10
2018-07-25T02:51:33.714Z,24.00
2018-07-25T02:56:37.142Z,24.00
2018-07-25T03:01:40.506Z,23.90
2018-07-25T03:06:43.917Z,23.80
2018-07-25T03:11:47.316Z,23.80
2018-07-25T03:16:50.708Z,23.70
2018-07-25T03:21:54.014Z,23.60
2018-07-25T03:26:57.387Z,23.60
2018-07-25T03:32:00.758Z,23.50
2018-07-25T03:37:04.176Z,23.40
2018-07-25T03:42:07.526Z,23.40
2018-07-25T03:47:10.880Z,23.30
2018-07-25T03:57:17.387Z,23.20
2018-07-25T04:02:20.817Z,23.00
2018-07-25T04:07:24.190Z,23.00
2018-07-25T04:12:28.440Z,22.90
2018-07-25T04:17:36.098Z,22.90
2018-07-25T04:22:39.485Z,22.90
2018-07-25T04:27:44.033Z,22.90
2018-07-25T04:32:47.373Z,22.90
2018-07-25T04:37:50.720Z,22.90
2018-07-25T04:42:54.083Z,22.90
2018-07-25T04:47:57.454Z,23.00
2018-07-25T04:53:00.797Z,23.00
2018-07-25T04:58:04.199Z,23.10
2018-07-25T05:03:07.595Z,23.10
2018-07-25T05:08:10.977Z,23.20
2018-07-25T05:13:14.396Z,23.20
2018-07-25T05:18:17.807Z,23.30
2018-07-25T05:23:21.277Z,23.40
2018-07-25T05:28:24.636Z,23.50
2018-07-25T05:33:27.992Z,23.50
2018-07-25T05:38:31.365Z,23.70
2018-07-25T05:43:34.792Z,23.80
2018-07-25T05:48:38.144Z,23.90
2018-07-25T05:53:41.497Z,24.00
2018-07-25T05:58:45.491Z,24.20
2018-07-25T06:03:48.926Z,24.40
2018-07-25T06:08:52.304Z,24.60
2018-07-25T06:13:55.658Z,24.80
2018-07-25T06:18:59.013Z,25.00
2018-07-25T06:24:02.601Z,25.20
2018-07-25T06:29:06.048Z,25.40
2018-07-25T06:34:09.474Z,25.60
2018-07-25T06:39:13.772Z,25.90
2018-07-25T06:44:17.119Z,26.30
2018-07-25T06:49:20.495Z,26.60
2018-07-25T06:54:23.852Z,27.00
2018-07-25T06:59:27.201Z,27.30
2018-07-25T07:04:30.557Z,27.60
2018-07-25T07:09:33.919Z,27.90
2018-07-25T07:14:37.289Z,28.20
2018-07-25T07:19:40.682Z,28.50
2018-07-25T07:24:44.038Z,28.80
2018-07-25T07:29:47.418Z,29.10
2018-07-25T07:34:50.787Z,29.40
2018-07-25T07:39:54.196Z,29.70
2018-07-25T07:50:00.652Z,30.20
2018-07-25T07:55:04.561Z,30.50
2018-07-25T08:00:08.148Z,30.70
2018-07-25T08:05:11.527Z,31.00
2018-07-25T08:10:15.002Z,31.20
2018-07-25T08:15:18.354Z,31.50
2018-07-25T08:20:21.767Z,31.80
2018-07-25T08:25:25.183Z,32.00
2018-07-25T08:30:28.584Z,32.30
2018-07-25T08:35:31.999Z,32.50
2018-07-25T08:40:35.364Z,32.70
2018-07-25T08:45:38.849Z,33.00
2018-07-25T08:50:42.247Z,33.20
2018-07-25T08:55:45.600Z,33.40
2018-07-25T09:00:49.393Z,33.60
2018-07-25T09:05:52.828Z,33.90
2018-07-25T09:10:56.176Z,34.10
2018-07-25T09:15:59.616Z,34.30
2018-07-25T09:21:03.058Z,34.60
2018-07-25T09:26:06.605Z,34.80
2018-07-25T09:31:09.964Z,35.00
2018-07-25T09:36:13.427Z,35.10
2018-07-25T09:41:16.845Z,35.30
2018-07-25T09:46:20.283Z,35.50
2018-07-25T09:51:23.718Z,35.70
2018-07-25T09:56:27.152Z,35.80
2018-07-25T10:01:30.594Z,36.00
2018-07-25T10:06:33.959Z,36.20
2018-07-25T10:11:37.416Z,36.30
2018-07-25T10:16:40.832Z,36.50
2018-07-25T10:21:44.305Z,36.70
2018-07-25T10:26:47.710Z,36.80
2018-07-25T10:31:51.153Z,36.90
2018-07-25T10:36:54.533Z,37.10
2018-07-25T10:41:57.952Z,37.20
2018-07-25T10:47:01.425Z,37.40
2018-07-25T10:52:04.882Z,37.50
2018-07-25T10:57:08.449Z,37.50
2018-07-25T11:02:12.047Z,37.50
2018-07-25T11:07:15.469Z,37.50
2018-07-25T11:12:18.922Z,37.60
2018-07-25T11:17:22.365Z,37.60
2018-07-25T11:22:25.852Z,37.70
2018-07-25T11:27:29.272Z,37.60
2018-07-25T11:32:32.787Z,37.50
2018-07-25T11:37:36.143Z,37.40
2018-07-25T11:42:39.544Z,37.30
2018-07-25T11:47:42.922Z,37.20
2018-07-25T11:52:46.354Z,37.00
2018-07-25T11:57:49.764Z,36.90
2018-07-25T12:02:53.205Z,36.90
2018-07-25T12:07:56.603Z,36.90
2018-07-25T12:13:00.604Z,37.00
2018-07-25T12:18:04.023Z,37.20
2018-07-25T12:23:07.479Z,37.60
2018-07-25T12:28:10.917Z,37.90
2018-07-25T12:33:14.357Z,38.20
2018-07-25T12:38:17.844Z,38.40
2018-07-25T12:43:21.293Z,38.60
2018-07-25T12:48:24.723Z,38.80
2018-07-25T12:53:28.196Z,39.00
2018-07-25T12:58:31.617Z,39.10
2018-07-25T13:03:35.113Z,39.00
2018-07-25T13:08:38.676Z,38.90
2018-07-25T13:13:42.149Z,38.80
2018-07-25T13:18:45.943Z,38.60
2018-07-25T13:23:49.050Z,38.50
2018-07-25T13:28:52.597Z,38.30
2018-07-25T13:33:58.030Z,38.20
2018-07-25T13:44:04.849Z,38.00
2018-07-25T13:49:08.297Z,37.90
2018-07-25T13:54:11.760Z,37.90
2018-07-25T13:59:15.202Z,37.80
2018-07-25T14:04:18.832Z,37.70
2018-07-25T14:09:22.292Z,37.60
2018-07-25T14:14:25.758Z,37.50
2018-07-25T14:19:29.174Z,37.40
2018-07-25T14:24:32.734Z,37.30
2018-07-25T14:29:36.114Z,37.30
2018-07-25T14:34:39.578Z,37.30
2018-07-25T14:39:43.008Z,37.50
2018-07-25T14:44:46.418Z,37.70
2018-07-25T14:49:52.884Z,37.90
2018-07-25T14:54:56.388Z,38.20
2018-07-25T14:59:59.830Z,38.50
2018-07-25T15:05:03.354Z,38.80
2018-07-25T15:10:07.197Z,39.10
2018-07-25T15:20:14.893Z,39.60
2018-07-25T15:25:18.304Z,39.80
2018-07-25T15:30:21.783Z,40.10
2018-07-25T15:35:25.242Z,40.30
2018-07-25T15:40:28.623Z,40.30
2018-07-25T15:45:32.061Z,40.20
2018-07-25T15:50:35.536Z,40.00
2018-07-25T15:55:38.988Z,39.70
2018-07-25T16:00:42.393Z,39.00
2018-07-25T16:05:45.844Z,38.20
2018-07-25T16:10:49.361Z,37.50
2018-07-25T16:15:52.716Z,36.80
2018-07-25T16:25:59.252Z,35.60
2018-07-25T16:31:02.783Z,35.20
2018-07-25T16:36:06.688Z,34.70
2018-07-25T16:41:10.071Z,34.30
2018-07-25T16:46:13.496Z,33.90
2018-07-25T16:51:16.924Z,33.60
2018-07-25T16:56:20.336Z,33.30
2018-07-25T17:01:23.804Z,33.00
2018-07-25T17:06:27.832Z,32.80
2018-07-25T17:11:31.278Z,32.50
2018-07-25T17:16:34.768Z,32.40
2018-07-25T17:21:38.198Z,32.20
2018-07-25T17:26:41.657Z,32.00
2018-07-25T17:31:45.099Z,32.00
2018-07-25T17:36:48.528Z,31.80
2018-07-25T17:41:51.918Z,31.70
2018-07-25T17:46:55.345Z,31.60
2018-07-25T17:51:58.749Z,31.50
2018-07-25T17:57:02.207Z,31.30
2018-07-25T18:02:05.602Z,31.20
2018-07-25T18:07:09.005Z,31.30
2018-07-25T18:12:12.484Z,31.20
2018-07-25T18:17:15.880Z,31.20
2018-07-25T18:22:19.323Z,31.10
2018-07-25T18:27:22.705Z,31.10
2018-07-25T18:32:26.128Z,31.10
2018-07-25T18:37:29.529Z,31.10
2018-07-25T18:42:32.936Z,31.10
2018-07-25T18:47:36.324Z,31.10
2018-07-25T18:52:39.707Z,31.10
2018-07-25T18:57:43.091Z,31.10
2018-07-25T19:02:46.536Z,31.10
2018-07-25T19:07:49.863Z,31.00
2018-07-25T19:17:56.668Z,30.90
2018-07-25T19:23:00.082Z,30.90
2018-07-25T19:28:03.419Z,30.80
2018-07-25T19:33:06.757Z,30.80
2018-07-25T19:38:10.204Z,30.70
2018-07-25T19:43:13.553Z,30.60
2018-07-25T19:48:16.908Z,30.40
2018-07-25T19:53:20.279Z,30.30
2018-07-25T19:58:23.625Z,30.20
2018-07-25T20:03:26.944Z,30.00
2018-07-25T20:08:30.324Z,29.90
2018-07-25T20:13:33.704Z,29.80
2018-07-25T20:18:37.160Z,29.70
2018-07-25T20:23:40.496Z,29.50
2018-07-25T20:28:43.852Z,29.40
2018-07-25T20:33:47.316Z,29.30
2018-07-25T20:38:50.656Z,29.30
2018-07-25T20:43:54.045Z,29.20
2018-07-25T20:48:57.417Z,29.20
2018-07-25T20:54:00.892Z,29.10
2018-07-25T20:59:04.288Z,29.10
2018-07-25T21:04:08.494Z,29.10
2018-07-25T21:14:14.993Z,29.10
2018-07-25T21:19:18.416Z,29.00
2018-07-25T21:24:21.868Z,29.00
2018-07-25T21:29:25.281Z,28.90
2018-07-25T21:34:28.672Z,28.90
2018-07-25T21:39:32.035Z,28.90
2018-07-25T21:44:35.432Z,28.80
2018-07-25T21:49:38.881Z,28.70
2018-07-25T21:54:42.269Z,28.70
2018-07-25T21:59:45.642Z,28.60
2018-07-25T22:04:49.036Z,28.60
2018-07-25T22:09:52.452Z,28.50
2018-07-25T22:14:55.804Z,28.50
2018-07-25T22:19:59.158Z,28.40
2018-07-25T22:25:02.552Z,28.30
2018-07-25T22:30:05.952Z,28.30
2018-07-25T22:35:09.360Z,28.20
2018-07-25T22:45:15.868Z,28.20
2018-07-25T22:50:19.257Z,28.20
2018-07-25T22:55:22.636Z,28.10
2018-07-25T23:00:25.984Z,28.10
2018-07-25T23:05:29.340Z,28.00
2018-07-25T23:10:32.714Z,27.90
2018-07-25T23:15:36.087Z,27.90
2018-07-25T23:20:39.469Z,27.80
2018-07-25T23:25:42.822Z,27.80
2018-07-25T23:30:46.240Z,27.70
2018-07-25T23:35:49.616Z,27.70
2018-07-25T23:45:56.126Z,27.50
2018-07-25T23:50:59.511Z,27.50
2018-07-25T23:56:02.874Z,27.40
